Time;durP1;ratioP1;P1;durP2;ratioP2;P2;SDS_P1;SDS_P2;PMS_P1;PMS_P2;Temp;Humidity;BMP_temperature;BMP_pressure;BME280_temperature;BME280_humidity;BME280_pressure;Samples;Min_cycle;Max_cycle;Signal;HPM_P1;HPM_P2
2022/01/30 00:00:14;;;;;;;;;9.00;8.33;;;;;10.79;84.33;102738.94;5118434;27;45239;-82
2022/01/30 00:02:39;;;;;;;;;9.00;9.00;;;;;10.79;83.90;102717.69;5099730;27;45432;-82
2022/01/30 00:05:06;;;;;;;;;10.33;8.00;;;;;10.70;83.53;102709.25;5118532;27;45530;-82
2022/01/30 00:07:31;;;;;;;;;8.00;7.67;;;;;10.71;83.71;102705.78;5099838;27;48028;-82
2022/01/30 00:09:57;;;;;;;;;6.67;6.67;;;;;10.91;83.34;102747.53;5118245;27;45294;-82
2022/01/30 00:12:31;;;;;;;;;8.00;8.00;;;;;10.77;83.41;102706.06;5099866;27;45934;-82
2022/01/30 00:14:57;;;;;;;;;10.00;9.00;;;;;10.85;83.57;102727.72;5118257;27;45339;-82
2022/01/30 00:17:30;;;;;;;;;8.33;6.33;;;;;10.92;83.54;102736.03;5118238;27;46314;-82
2022/01/30 00:20:03;;;;;;;;;7.67;6.00;;;;;10.96;83.35;102740.69;5118284;27;45425;-83
2022/01/30 00:25:01;;;;;;;;;10.33;5.00;;;;;10.77;82.84;102711.38;5118244;27;45362;-82
2022/01/30 00:27:30;;;;;;;;;8.00;6.00;;;;;10.78;83.03;102707.91;5118090;27;46575;-83
2022/01/30 00:29:56;;;;;;;;;10.33;7.33;;;;;10.69;83.18;102687.13;5117973;27;45328;-82
2022/01/30 00:32:22;;;;;;;;;9.00;9.00;;;;;10.67;83.31;102711.78;5118176;27;45440;-82
2022/01/30 00:34:48;;;;;;;;;7.33;6.00;;;;;10.74;83.59;102709.47;5099597;27;45364;-82
2022/01/30 00:37:14;;;;;;;;;7.00;5.67;;;;;10.74;83.39;102711.25;5117414;27;45467;-82
2022/01/30 00:39:40;;;;;;;;;7.33;6.00;;;;;10.69;83.65;102723.38;5118024;27;45450;-82
2022/01/30 00:42:06;;;;;;;;;5.00;5.00;;;;;10.82;83.83;102736.44;5117946;27;45456;-83
2022/01/30 00:44:31;;;;;;;;;6.50;5.50;;;;;10.89;83.52;102721.72;5118063;27;45340;-82
2022/01/30 00:46:58;;;;;;;;;6.33;6.33;;;;;10.67;83.31;102679.91;5117802;27;46604;-82
2022/01/30 00:49:25;;;;;;;;;4.33;2.67;;;;;10.95;83.01;102725.56;5117602;27;45449;-82
2022/01/30 00:51:50;;;;;;;;;5.67;5.67;;;;;10.79;83.66;102720.34;5125354;27;45378;-82
2022/01/30 00:54:16;;;;;;;;;5.33;5.33;;;;;10.86;83.61;102701.22;5138165;27;45621;-82
2022/01/30 00:56:41;;;;;;;;;9.67;6.00;;;;;10.63;83.83;102663.84;5138424;27;45609;-82
2022/01/30 00:59:06;;;;;;;;;10.00;7.33;;;;;10.57;83.70;102674.13;5137393;27;45547;-82
2022/01/30 01:01:32;;;;;;;;;4.00;3.00;;;;;10.57;84.47;102684.75;5138311;27;45474;-82
2022/01/30 01:03:58;;;;;;;;;4.00;4.00;;;;;10.77;83.75;102684.84;5138431;27;45393;-82
2022/01/30 01:06:23;;;;;;;;;9.00;5.67;;;;;10.79;83.96;102707.97;5137932;27;45366;-82
2022/01/30 01:08:52;;;;;;;;;5.33;5.33;;;;;10.78;83.50;102682.25;5138414;27;45323;-82
2022/01/30 01:24:39;;;;;;;;;5.33;5.33;;;;;10.98;82.65;102692.94;5138235;27;45368;-82
2022/01/30 01:27:05;;;;;;;;;5.00;3.67;;;;;10.81;82.59;102660.25;5119232;27;48049;-82
2022/01/30 01:29:30;;;;;;;;;10.00;8.67;;;;;10.90;82.12;102676.66;5116044;27;45519;-82
2022/01/30 01:31:55;;;;;;;;;4.00;3.00;;;;;10.93;82.24;102682.09;5117442;27;45443;-83
2022/01/30 01:34:31;;;;;;;;;6.00;5.00;;;;;10.97;82.58;102686.72;5117407;27;45303;-82
2022/01/30 01:36:57;;;;;;;;;5.67;5.00;;;;;10.87;82.88;102680.88;5098533;27;47328;-83
2022/01/30 01:39:23;;;;;;;;;8.00;5.33;;;;;11.06;82.18;102688.00;5116914;27;45365;-83
2022/01/30 01:41:48;;;;;;;;;3.00;3.00;;;;;10.95;82.10;102674.22;5117049;27;45459;-82
2022/01/30 01:44:21;;;;;;;;;5.00;5.00;;;;;11.04;82.27;102687.00;5115502;27;45399;-82
2022/01/30 01:46:47;;;;;;;;;9.00;7.67;;;;;10.81;81.71;102650.56;5098318;27;47226;-82
2022/01/30 01:49:19;;;;;;;;;6.33;4.00;;;;;10.71;82.25;102663.31;5116765;27;45368;-82
2022/01/30 01:51:50;;;;;;;;;5.00;4.00;;;;;10.88;81.84;102678.31;5116679;27;45630;-82
2022/01/30 01:54:15;;;;;;;;;6.25;5.75;;;;;10.76;82.22;102654.75;5098444;27;45481;-82
2022/01/30 01:56:41;;;;;;;;;4.50;4.50;;;;;10.84;82.00;102671.03;5116945;27;46503;-82
2022/01/30 01:59:06;;;;;;;;;7.00;6.33;;;;;11.05;81.52;102691.50;5116774;27;45387;-82
2022/01/30 02:01:32;;;;;;;;;7.33;6.33;;;;;10.94;80.81;102673.31;5116608;27;45531;-82
2022/01/30 02:03:57;;;;;;;;;9.00;7.00;;;;;11.15;80.66;102696.41;5116454;27;45626;-81
2022/01/30 02:06:24;;;;;;;;;6.67;6.67;;;;;10.96;80.90;102650.38;5116479;27;45475;-82
2022/01/30 02:08:57;;;;;;;;;7.33;7.33;;;;;11.10;80.65;102677.59;5117001;27;45411;-82
2022/01/30 02:27:40;;;;;;;;;9.33;8.00;;;;;11.26;80.35;102667.69;5119839;27;45744;-82
2022/01/30 02:30:19;;;;;;;;;10.33;9.00;;;;;11.14;79.87;102647.69;5130534;27;45450;-82
2022/01/30 02:32:46;;;;;;;;;8.67;6.00;;;;;11.29;79.70;102676.75;5122276;27;45364;-82
2022/01/30 02:35:12;;;;;;;;;13.33;11.00;;;;;11.31;79.72;102672.38;5121887;27;45569;-82
2022/01/30 02:37:38;;;;;;;;;8.00;6.67;;;;;11.12;79.46;102645.78;5140426;27;45572;-82
2022/01/30 02:40:08;;;;;;;;;10.33;10.00;;;;;11.21;80.21;102654.22;5140572;27;45440;-82
2022/01/30 02:42:36;;;;;;;;;13.00;8.33;;;;;11.29;80.13;102666.13;5140998;27;45346;-82
2022/01/30 02:45:05;;;;;;;;;13.33;12.00;;;;;11.03;80.23;102621.47;5140694;27;45547;-82
2022/01/30 02:50:15;;;;;;;;;9.00;7.67;;;;;11.16;80.31;102669.00;5119708;27;45472;-82
2022/01/30 02:52:43;;;;;;;;;13.00;10.00;;;;;11.25;79.97;102688.06;5119908;27;45228;-83
2022/01/30 02:55:11;;;;;;;;;10.67;10.00;;;;;11.06;80.04;102656.16;5119939;27;45476;-82
2022/01/30 02:57:38;;;;;;;;;11.33;10.00;;;;;11.08;80.43;102660.69;5119439;27;46643;-82
2022/01/30 03:00:06;;;;;;;;;10.00;10.00;;;;;11.18;80.23;102672.66;5119927;27;45337;-82
2022/01/30 03:02:31;;;;;;;;;8.67;8.00;;;;;11.09;79.78;102659.84;5118947;27;45424;-82
2022/01/30 03:04:56;;;;;;;;;11.33;10.33;;;;;11.20;80.13;102672.75;5119534;27;45290;-82
2022/01/30 03:07:22;;;;;;;;;10.00;10.00;;;;;11.16;79.98;102658.38;5100681;27;48313;-82
2022/01/30 03:09:47;;;;;;;;;13.67;10.33;;;;;11.12;79.85;102661.72;5119217;27;45676;-82
2022/01/30 03:12:12;;;;;;;;;12.67;10.00;;;;;11.24;79.68;102690.66;5119273;27;45518;-82
2022/01/30 03:14:38;;;;;;;;;12.00;9.67;;;;;10.99;79.79;102650.53;5119167;27;45639;-82
2022/01/30 03:17:03;;;;;;;;;16.00;10.00;;;;;11.03;79.87;102656.00;5118885;27;45435;-83
2022/01/30 03:19:29;;;;;;;;;11.67;9.00;;;;;11.08;79.43;102666.00;5118957;27;45513;-82
2022/01/30 03:21:54;;;;;;;;;13.00;11.00;;;;;11.05;78.87;102665.84;5099385;27;45563;-82
2022/01/30 03:24:20;;;;;;;;;12.33;9.00;;;;;11.07;79.40;102673.88;5119197;27;45596;-82
2022/01/30 03:26:45;;;;;;;;;9.33;9.33;;;;;10.93;78.58;102668.81;5118778;27;45467;-82
2022/01/30 03:29:10;;;;;;;;;9.33;8.00;;;;;10.97;78.46;102662.84;5121425;27;45455;-82
2022/01/30 03:31:39;;;;;;;;;11.00;9.00;;;;;11.02;77.96;102683.41;5139411;27;46033;-82
2022/01/30 03:34:07;;;;;;;;;9.33;9.00;;;;;11.08;76.30;102686.31;5139773;27;45399;-82
2022/01/30 03:36:34;;;;;;;;;13.00;9.67;;;;;10.99;76.96;102689.47;5139313;27;45441;-82
2022/01/30 03:38:59;;;;;;;;;12.00;10.00;;;;;10.86;76.14;102657.81;5139874;27;45380;-82
2022/01/30 03:41:26;;;;;;;;;13.33;10.33;;;;;10.99;74.16;102700.09;5139757;27;45358;-82
2022/01/30 03:43:51;;;;;;;;;10.00;10.00;;;;;10.75;74.27;102644.03;5139592;27;45325;-82
2022/01/30 03:46:22;;;;;;;;;10.00;9.00;;;;;10.55;73.61;102622.75;5138988;27;45434;-82
2022/01/30 03:48:47;;;;;;;;;8.33;8.33;;;;;10.82;72.47;102668.28;5139503;27;45436;-82
2022/01/30 03:51:13;;;;;;;;;6.00;4.25;;;;;10.52;69.48;102614.63;5139409;27;45579;-82
2022/01/30 03:53:39;;;;;;;;;4.00;2.25;;;;;10.63;68.38;102639.97;5139619;27;45327;-82
2022/01/30 03:56:05;;;;;;;;;3.25;3.00;;;;;10.67;67.83;102661.34;5120776;27;46451;-82
2022/01/30 03:58:31;;;;;;;;;4.75;3.00;;;;;10.76;66.22;102677.72;5139348;27;45442;-82
2022/01/30 04:00:57;;;;;;;;;2.75;2.75;;;;;10.60;64.58;102676.97;5139096;27;45268;-82
2022/01/30 04:03:22;;;;;;;;;1.25;1.00;;;;;10.24;64.21;102610.56;5139310;27;45447;-82
2022/01/30 04:05:48;;;;;;;;;2.00;1.00;;;;;10.68;63.42;102685.31;5139201;27;45577;-82
2022/01/30 04:08:14;;;;;;;;;4.00;2.75;;;;;10.61;65.42;102678.78;5120778;27;45480;-82
2022/01/30 04:10:39;;;;;;;;;2.25;1.00;;;;;10.53;65.83;102674.81;5139302;27;45246;-82
2022/01/30 04:13:06;;;;;;;;;0.75;0.75;;;;;10.41;62.91;102660.97;5139221;27;45480;-82
2022/01/30 04:15:31;;;;;;;;;3.75;1.75;;;;;10.54;62.77;102691.66;5138886;27;45488;-82
2022/01/30 04:17:57;;;;;;;;;2.75;0.50;;;;;10.34;64.25;102666.72;5138797;27;45463;-82
2022/01/30 04:20:22;;;;;;;;;2.25;1.00;;;;;10.44;63.32;102690.28;5138890;27;45499;-83
2022/01/30 04:22:48;;;;;;;;;5.00;1.00;;;;;10.14;62.73;102645.44;5138651;27;45430;-82
2022/01/30 04:25:13;;;;;;;;;1.00;1.00;;;;;10.21;62.93;102665.19;5138461;27;46166;-82
2022/01/30 04:27:39;;;;;;;;;3.00;2.00;;;;;10.29;63.29;102683.34;5119652;27;45742;-82
2022/01/30 04:30:07;;;;;;;;;0.00;0.00;;;;;10.30;62.62;102702.81;5138760;27;45499;-82
2022/01/30 04:32:33;;;;;;;;;1.25;1.25;;;;;10.16;62.97;102672.03;5138658;27;45434;-82
2022/01/30 04:35:09;;;;;;;;;1.00;1.00;;;;;10.19;63.19;102686.34;5138807;27;45788;-83
2022/01/30 04:40:32;;;;;;;;;1.50;1.50;;;;;10.28;63.72;102716.00;5138828;27;45380;-82
2022/01/30 05:09:41;;;;;;;;;3.50;1.00;;;;;10.13;64.22;102713.47;5078892;27;45543;-82
2022/01/30 05:12:07;;;;;;;;;4.25;1.00;;;;;9.89;64.54;102668.00;5095021;27;45410;-83
2022/01/30 05:14:35;;;;;;;;;1.75;1.75;;;;;10.23;64.55;102725.47;5094507;27;45826;-82
2022/01/30 05:17:03;;;;;;;;;3.00;2.00;;;;;10.21;64.56;102713.88;5094637;27;45464;-82
2022/01/30 05:19:29;;;;;;;;;2.00;1.00;;;;;10.25;65.01;102734.44;5077600;27;45444;-82
2022/01/30 05:21:55;;;;;;;;;2.00;1.00;;;;;10.08;64.40;102704.38;5077516;27;45501;-82
2022/01/30 05:24:20;;;;;;;;;4.00;1.00;;;;;10.02;64.67;102684.56;5095420;27;45369;-82
2022/01/30 05:26:47;;;;;;;;;2.75;1.00;;;;;10.29;62.71;102725.81;5117344;27;45714;-82
2022/01/30 05:29:14;;;;;;;;;2.00;1.00;;;;;10.28;62.84;102731.94;5117033;27;45365;-82
2022/01/30 05:31:40;;;;;;;;;4.00;1.25;;;;;10.24;62.72;102745.88;5117407;27;45325;-82
2022/01/30 05:34:06;;;;;;;;;0.00;0.00;;;;;10.23;62.97;102738.72;5099075;27;45343;-83
2022/01/30 05:36:32;;;;;;;;;2.00;2.00;;;;;10.30;63.16;102753.22;5117242;27;45461;-83
2022/01/30 05:38:58;;;;;;;;;2.75;1.00;;;;;10.15;63.44;102716.19;5117168;27;45364;-83
2022/01/30 05:41:24;;;;;;;;;2.50;1.00;;;;;10.36;63.93;102750.03;5117469;27;45332;-83
2022/01/30 05:43:53;;;;;;;;;2.00;1.00;;;;;10.19;63.48;102719.94;5117068;27;45443;-83
2022/01/30 05:46:31;;;;;;;;;2.75;1.00;;;;;10.24;62.93;102723.75;5120829;27;45493;-83
2022/01/30 05:48:56;;;;;;;;;4.75;1.75;;;;;10.12;62.35;102713.38;5120771;27;45446;-83
2022/01/30 05:51:22;;;;;;;;;3.25;1.00;;;;;10.13;62.09;102717.88;5120814;27;45493;-83
2022/01/30 05:53:47;;;;;;;;;2.00;0.50;;;;;10.03;61.76;102710.25;5102141;27;48150;-83
2022/01/30 05:56:12;;;;;;;;;3.75;2.00;;;;;10.00;61.22;102695.09;5120302;27;46489;-82
2022/01/30 05:58:39;;;;;;;;;2.50;1.25;;;;;10.33;61.53;102765.75;5120773;27;45205;-82
2022/01/30 06:01:04;;;;;;;;;2.75;1.75;;;;;10.05;61.09;102722.75;5103557;27;45494;-82
2022/01/30 06:03:30;;;;;;;;;3.00;1.00;;;;;10.24;61.51;102748.50;5141315;27;45330;-82
2022/01/30 06:05:56;;;;;;;;;4.00;1.00;;;;;10.27;61.93;102763.69;5141013;27;45443;-82
2022/01/30 06:08:40;;;;;;;;;2.50;2.25;;;;;10.12;60.51;102745.22;5141234;27;45250;-82
2022/01/30 06:11:11;;;;;;;;;0.50;0.50;;;;;10.13;61.29;102753.25;5141159;27;45342;-82
2022/01/30 06:13:37;;;;;;;;;1.00;1.00;;;;;10.18;61.18;102756.13;5141475;27;45297;-83
2022/01/30 06:16:03;;;;;;;;;2.00;2.00;;;;;10.19;61.11;102772.97;5141033;27;46157;-83
2022/01/30 06:18:29;;;;;;;;;2.75;1.00;;;;;10.15;61.42;102776.28;5141042;27;45578;-83
2022/01/30 06:20:55;;;;;;;;;2.75;1.00;;;;;10.12;61.69;102780.59;5141081;27;45468;-83
2022/01/30 06:23:22;;;;;;;;;1.00;1.00;;;;;10.02;60.59;102774.72;5141228;27;46249;-83
2022/01/30 06:25:49;;;;;;;;;0.50;0.25;;;;;9.64;61.01;102721.44;5121796;27;47386;-82
2022/01/30 06:28:15;;;;;;;;;4.00;1.00;;;;;9.87;61.94;102766.84;5140931;27;45400;-83
2022/01/30 06:30:40;;;;;;;;;2.50;1.25;;;;;9.59;61.43;102715.91;5122527;27;45283;-83
2022/01/30 06:33:05;;;;;;;;;3.00;1.75;;;;;9.89;61.12;102765.22;5140855;27;45247;-83
2022/01/30 06:35:31;;;;;;;;;2.25;1.50;;;;;9.94;61.78;102787.56;5122209;27;46639;-83
2022/01/30 06:37:56;;;;;;;;;2.00;1.00;;;;;10.03;61.74;102787.19;5140802;27;45369;-82
2022/01/30 06:40:21;;;;;;;;;1.00;1.00;;;;;9.86;62.63;102770.31;5140389;27;46634;-82
2022/01/30 06:42:47;;;;;;;;;3.00;1.50;;;;;9.88;61.82;102772.22;5140896;27;45464;-82
2022/01/30 06:45:12;;;;;;;;;0.00;0.00;;;;;9.98;62.23;102783.34;5121944;27;48002;-82
2022/01/30 06:47:41;;;;;;;;;2.00;1.00;;;;;9.92;62.55;102782.19;5140703;27;45245;-82
2022/01/30 06:50:08;;;;;;;;;3.00;2.00;;;;;9.59;63.27;102715.91;5140786;27;45500;-82
2022/01/30 06:52:33;;;;;;;;;4.25;2.00;;;;;9.77;62.43;102752.19;5121878;27;45500;-82
2022/01/30 06:54:59;;;;;;;;;4.75;0.50;;;;;9.83;62.13;102783.41;5139914;27;45354;-82
2022/01/30 06:57:25;;;;;;;;;2.00;2.00;;;;;9.64;63.09;102745.31;5121996;27;45270;-82
2022/01/30 06:59:50;;;;;;;;;4.50;3.00;;;;;9.78;62.72;102777.88;5140316;27;45425;-82
2022/01/30 07:02:16;;;;;;;;;2.00;1.00;;;;;9.43;63.20;102703.53;5121434;27;45500;-82
2022/01/30 07:04:41;;;;;;;;;2.00;0.67;;;;;9.63;63.44;102750.53;5121379;27;48043;-82
2022/01/30 07:07:10;;;;;;;;;4.00;1.00;;;;;9.51;62.76;102746.38;5139808;27;45382;-82
2022/01/30 07:09:35;;;;;;;;;1.75;1.75;;;;;9.37;62.81;102739.41;5140013;27;45315;-83
2022/01/30 07:12:01;;;;;;;;;2.33;1.00;;;;;9.53;63.72;102773.84;5139956;27;45495;-82
2022/01/30 07:14:26;;;;;;;;;1.67;1.00;;;;;9.50;64.70;102771.03;5140069;27;45515;-83
2022/01/30 07:16:52;;;;;;;;;1.00;1.00;;;;;9.55;64.13;102782.81;5139794;27;45335;-81
2022/01/30 07:19:17;;;;;;;;;3.00;1.00;;;;;9.50;64.20;102784.28;5121530;27;45421;-82
2022/01/30 07:21:42;;;;;;;;;3.67;2.33;;;;;9.57;64.12;102798.78;5127208;27;45553;-82
2022/01/30 07:24:08;;;;;;;;;5.33;5.33;;;;;9.46;64.96;102798.19;5118673;27;45512;-80
2022/01/30 07:26:33;;;;;;;;;7.00;3.00;;;;;9.19;65.13;102752.50;5131141;27;45396;-81
2022/01/30 07:29:00;;;;;;;;;3.00;1.67;;;;;9.54;64.87;102814.53;5121018;27;45347;-81
2022/01/30 07:31:25;;;;;;;;;1.00;1.00;;;;;9.39;64.43;102796.91;5140052;27;45221;-84
2022/01/30 07:33:51;;;;;;;;;4.00;1.00;;;;;9.36;65.01;102796.75;5139571;27;45698;-83
2022/01/30 07:36:16;;;;;;;;;4.00;3.00;;;;;9.38;64.53;102811.00;5139583;27;45230;-83
2022/01/30 07:38:43;;;;;;;;;3.00;3.00;;;;;9.46;64.91;102835.28;5139755;27;45357;-83
2022/01/30 07:41:08;;;;;;;;;3.00;3.00;;;;;9.32;64.54;102815.03;5139838;27;45298;-80
2022/01/30 07:43:34;;;;;;;;;4.00;3.00;;;;;9.43;64.18;102829.81;5139934;27;45442;-80
2022/01/30 07:45:59;;;;;;;;;3.67;3.33;;;;;9.34;64.46;102819.59;5120752;27;45310;-81
2022/01/30 07:48:25;;;;;;;;;2.00;2.00;;;;;9.45;64.75;102849.34;5139539;27;45392;-80
2022/01/30 07:50:50;;;;;;;;;4.00;3.00;;;;;9.18;64.80;102807.19;5120837;27;45347;-83
2022/01/30 07:53:16;;;;;;;;;5.33;3.00;;;;;9.24;65.21;102839.34;5139189;27;45456;-83
2022/01/30 07:55:41;;;;;;;;;7.00;4.00;;;;;9.17;65.30;102837.19;5139583;27;45527;-84
2022/01/30 07:58:06;;;;;;;;;7.33;3.67;;;;;8.99;65.77;102801.69;5139547;27;45583;-83
2022/01/30 08:00:32;;;;;;;;;7.67;5.33;;;;;9.18;65.71;102832.78;5120654;27;45586;-84
2022/01/30 08:02:57;;;;;;;;;5.00;3.00;;;;;9.02;66.17;102818.66;5120229;27;47342;-83
2022/01/30 08:05:23;;;;;;;;;4.33;2.67;;;;;8.96;66.00;102804.13;5120420;27;45412;-84
2022/01/30 08:07:48;;;;;;;;;5.00;4.00;;;;;9.01;65.94;102814.16;5138503;27;45375;-84
2022/01/30 08:10:13;;;;;;;;;7.67;6.67;;;;;9.12;65.39;102840.38;5120419;27;45619;-83
2022/01/30 08:12:39;;;;;;;;;4.33;3.33;;;;;8.82;65.48;102806.91;5120394;27;48334;-83
2022/01/30 08:15:05;;;;;;;;;5.67;5.00;;;;;9.15;66.53;102860.00;5120400;27;45421;-83
2022/01/30 08:17:33;;;;;;;;;7.33;5.00;;;;;9.03;66.88;102851.31;5120574;27;45315;-83
2022/01/30 08:19:59;;;;;;;;;7.33;5.00;;;;;9.01;66.32;102823.84;5120361;27;45550;-83
2022/01/30 08:22:28;;;;;;;;;7.33;7.33;;;;;9.17;66.29;102845.13;5120065;27;48090;-83
2022/01/30 08:24:53;;;;;;;;;11.00;10.33;;;;;9.25;65.51;102850.84;5139025;27;45325;-83
2022/01/30 08:27:19;;;;;;;;;13.33;10.33;;;;;9.14;65.75;102829.06;5119754;27;45499;-84
2022/01/30 08:29:44;;;;;;;;;10.00;10.00;;;;;8.99;64.99;102791.09;5099162;27;45812;-84
2022/01/30 08:32:11;;;;;;;;;16.00;11.33;;;;;9.27;64.89;102835.97;5117911;27;46351;-83
2022/01/30 08:34:38;;;;;;;;;8.67;8.67;;;;;9.18;65.09;102807.19;5099223;27;45352;-84
2022/01/30 08:37:04;;;;;;;;;11.00;9.33;;;;;9.11;64.86;102786.47;5117745;27;45245;-84
2022/01/30 08:39:29;;;;;;;;;13.00;7.67;;;;;9.23;64.25;102811.03;5099538;27;45549;-83
2022/01/30 08:41:55;;;;;;;;;9.33;9.00;;;;;9.24;64.54;102814.59;5117418;27;45538;-84
2022/01/30 08:44:20;;;;;;;;;13.33;12.33;;;;;9.44;64.67;102876.69;5118050;27;45553;-84
2022/01/30 08:46:45;;;;;;;;;11.33;8.00;;;;;9.21;64.95;102833.88;5099651;27;45326;-84
2022/01/30 08:49:11;;;;;;;;;9.00;5.67;;;;;9.34;64.59;102850.47;5117419;27;45312;-84
2022/01/30 08:51:39;;;;;;;;;6.00;5.00;;;;;9.29;63.09;102842.25;5117602;27;45482;-84
2022/01/30 08:54:05;;;;;;;;;5.00;5.00;;;;;9.01;63.19;102792.97;5117305;27;45658;-84
2022/01/30 08:56:30;;;;;;;;;6.67;4.33;;;;;9.22;63.52;102822.44;5117588;27;45474;-84
2022/01/30 08:58:55;;;;;;;;;8.00;4.33;;;;;9.25;64.09;102819.06;5099265;27;45551;-83
2022/01/30 09:01:21;;;;;;;;;9.00;4.00;;;;;9.40;63.56;102830.53;5098741;27;47193;-84
2022/01/30 09:03:46;;;;;;;;;7.00;5.33;;;;;9.59;63.22;102874.91;5099089;27;45739;-83
2022/01/30 09:06:12;;;;;;;;;6.33;4.00;;;;;9.57;63.79;102876.53;5098793;27;45263;-83
2022/01/30 09:08:37;;;;;;;;;6.00;4.00;;;;;8.99;63.24;102772.56;5099368;27;45407;-83
2022/01/30 09:11:02;;;;;;;;;5.33;4.00;;;;;9.49;63.27;102856.66;5098936;27;47897;-83
2022/01/30 09:13:28;;;;;;;;;5.33;3.67;;;;;9.50;63.55;102847.88;5117739;27;45266;-83
2022/01/30 09:15:57;;;;;;;;;4.67;4.00;;;;;9.70;63.77;102862.25;5098709;27;45354;-82
2022/01/30 09:18:25;;;;;;;;;4.00;3.00;;;;;9.55;62.89;102825.22;5098159;27;45480;-83
2022/01/30 09:20:50;;;;;;;;;6.67;4.00;;;;;9.44;63.34;102802.50;5098281;27;47040;-85
2022/01/30 09:23:15;;;;;;;;;5.00;4.00;;;;;9.79;62.70;102864.53;5117135;27;45404;-85
2022/01/30 09:25:41;;;;;;;;;4.67;3.00;;;;;9.60;62.43;102822.81;5122216;27;45531;-85
2022/01/30 09:28:06;;;;;;;;;5.00;3.00;;;;;9.77;61.83;102855.56;5137509;27;45594;-84
2022/01/30 09:30:32;;;;;;;;;4.00;4.00;;;;;9.73;62.32;102846.53;5137706;27;45329;-84
2022/01/30 09:32:58;;;;;;;;;8.33;3.00;;;;;9.77;61.32;102855.56;5138121;27;45359;-84
2022/01/30 09:35:23;;;;;;;;;3.00;2.00;;;;;9.54;61.18;102812.78;5118943;27;45310;-84
2022/01/30 09:37:49;;;;;;;;;3.67;2.33;;;;;9.72;61.81;102849.13;5119218;27;45541;-84
2022/01/30 09:40:17;;;;;;;;;2.00;2.00;;;;;9.89;61.93;102876.56;5137407;27;46483;-83
2022/01/30 09:42:45;;;;;;;;;3.00;3.00;;;;;9.69;61.35;102817.09;5137788;27;45333;-83
2022/01/30 09:45:11;;;;;;;;;8.67;4.00;;;;;9.85;61.76;102854.25;5119146;27;45342;-82
2022/01/30 09:47:37;;;;;;;;;5.00;4.00;;;;;9.99;61.46;102870.94;5137871;27;45445;-82
2022/01/30 09:50:04;;;;;;;;;2.33;2.00;;;;;9.85;61.50;102829.50;5117812;27;46579;-83
2022/01/30 09:52:29;;;;;;;;;3.67;3.00;;;;;9.92;60.59;102837.84;5137503;27;45409;-83
2022/01/30 09:54:55;;;;;;;;;3.33;2.67;;;;;10.12;60.93;102873.41;5118989;27;45429;-82
2022/01/30 09:57:20;;;;;;;;;5.00;2.67;;;;;9.83;60.78;102820.53;5118991;27;45592;-83
2022/01/30 09:59:46;;;;;;;;;2.67;2.67;;;;;10.02;60.78;102855.19;5118914;27;48269;-83
2022/01/30 10:02:12;;;;;;;;;5.00;3.00;;;;;10.02;61.11;102856.94;5118631;27;45740;-83
2022/01/30 10:04:39;;;;;;;;;4.00;3.00;;;;;10.20;61.27;102876.50;5121847;27;45406;-83
2022/01/30 10:07:18;;;;;;;;;3.33;3.00;;;;;10.20;60.91;102881.81;5116656;27;45257;-83
2022/01/30 10:09:46;;;;;;;;;6.67;4.00;;;;;10.33;61.38;102886.03;5098366;27;47408;-82
2022/01/30 10:14:59;;;;;;;;;8.00;3.00;;;;;10.28;59.39;102885.81;5116814;27;45203;-83
2022/01/30 10:17:34;;;;;;;;;4.33;1.00;;;;;10.24;59.17;102881.16;5116318;27;45211;-82
2022/01/30 10:20:07;;;;;;;;;1.00;1.00;;;;;10.32;59.63;102885.97;5116168;27;45346;-85
2022/01/30 10:22:36;;;;;;;;;5.00;2.33;;;;;10.00;60.76;102821.44;5097933;27;45476;-82
2022/01/30 10:25:03;;;;;;;;;4.33;3.00;;;;;10.22;60.05;102853.63;5116563;27;45332;-83
2022/01/30 10:27:29;;;;;;;;;4.00;2.33;;;;;10.38;60.43;102865.09;5116220;27;45405;-82
2022/01/30 10:30:02;;;;;;;;;3.00;3.00;;;;;10.38;59.48;102863.38;5116975;27;45504;-85
2022/01/30 10:32:28;;;;;;;;;5.00;3.00;;;;;10.23;59.97;102833.31;5101381;27;45251;-85
2022/01/30 10:35:01;;;;;;;;;3.50;3.00;;;;;10.55;59.33;102876.63;5101466;27;45356;-82
2022/01/30 10:37:27;;;;;;;;;3.00;3.00;;;;;10.31;59.40;102832.00;5119634;27;45510;-82
2022/01/30 10:40:16;;;;;;;;;5.00;2.67;;;;;10.46;58.02;102877.03;5100977;27;47162;-82
2022/01/30 10:42:47;;;;;;;;;2.33;2.33;;;;;10.34;58.73;102866.69;5119638;27;45401;-84
2022/01/30 10:45:18;;;;;;;;;3.00;3.00;;;;;10.43;58.02;102884.84;5101432;27;45360;-82
2022/01/30 10:47:45;;;;;;;;;3.33;3.00;;;;;10.21;59.10;102841.19;5119241;27;45420;-82
2022/01/30 10:50:10;;;;;;;;;3.33;3.33;;;;;10.50;59.52;102871.06;5100822;27;47187;-82
2022/01/30 10:52:56;;;;;;;;;5.67;3.00;;;;;10.45;59.88;102846.03;5119366;27;45370;-82
2022/01/30 10:55:39;;;;;;;;;4.33;3.00;;;;;10.41;58.84;102829.03;5118925;27;45388;-82
2022/01/30 10:58:09;;;;;;;;;5.00;4.00;;;;;10.37;59.21;102810.22;5119566;27;45263;-82
2022/01/30 11:00:36;;;;;;;;;3.67;3.00;;;;;10.64;59.03;102854.13;5100500;27;48399;-82
2022/01/30 11:03:01;;;;;;;;;4.33;3.00;;;;;10.67;59.54;102856.03;5119188;27;45374;-82
2022/01/30 11:05:26;;;;;;;;;4.00;4.00;;;;;10.63;59.23;102825.78;5119512;27;45419;-82
2022/01/30 11:07:52;;;;;;;;;9.00;4.00;;;;;10.78;58.20;102846.88;5119181;27;45401;-82
2022/01/30 11:10:23;;;;;;;;;8.00;3.00;;;;;10.89;56.71;102859.81;5118744;27;45448;-82
2022/01/30 11:12:57;;;;;;;;;6.00;4.33;;;;;10.72;57.55;102843.91;5119053;27;45473;-82
2022/01/30 11:17:57;;;;;;;;;3.67;3.00;;;;;10.65;58.18;102825.84;5119180;27;45430;-81
2022/01/30 11:20:24;;;;;;;;;4.67;4.67;;;;;10.80;58.58;102845.22;5118432;27;46679;-82
2022/01/30 11:22:54;;;;;;;;;5.00;5.00;;;;;10.76;56.30;102824.66;5119367;27;45307;-82
2022/01/30 11:25:21;;;;;;;;;5.00;4.00;;;;;10.82;55.58;102848.84;5100212;27;45346;-82
2022/01/30 11:27:49;;;;;;;;;6.33;4.00;;;;;10.69;56.06;102830.47;5119201;27;45379;-83
2022/01/30 11:30:17;;;;;;;;;3.33;3.33;;;;;10.26;56.39;102759.19;5118417;27;45548;-82
2022/01/30 11:32:43;;;;;;;;;3.33;2.00;;;;;10.71;56.30;102841.19;5100499;27;45381;-83
2022/01/30 11:35:09;;;;;;;;;3.67;3.00;;;;;10.69;55.45;102838.44;5100663;27;45461;-83
2022/01/30 11:37:39;;;;;;;;;5.00;3.67;;;;;10.78;53.96;102840.66;5118979;27;45630;-83
2022/01/30 11:40:16;;;;;;;;;6.00;3.00;;;;;10.92;55.86;102839.63;5119014;27;45573;-82
2022/01/30 11:42:45;;;;;;;;;19.67;17.33;;;;;10.66;55.25;102771.94;5113208;27;45490;-82
2022/01/30 11:45:24;;;;;;;;;6.67;5.00;;;;;10.88;56.18;102771.25;5139278;27;45439;-82
2022/01/30 11:48:00;;;;;;;;;5.33;4.00;;;;;11.19;55.35;102796.69;5121154;27;45529;-82
2022/01/30 11:50:30;;;;;;;;;5.00;3.67;;;;;11.38;55.47;102806.47;5139326;27;45470;-83
2022/01/30 11:53:09;;;;;;;;;5.00;2.67;;;;;11.54;55.51;102813.44;5120719;27;45433;-82
2022/01/30 11:55:41;;;;;;;;;3.33;2.33;;;;;11.50;55.49;102787.53;5139629;27;45855;-82
2022/01/30 11:58:27;;;;;;;;;8.00;5.00;;;;;11.77;54.78;102809.22;5139560;27;45231;-82
2022/01/30 12:00:52;;;;;;;;;7.67;5.67;;;;;11.75;53.82;102789.63;5138791;27;46611;-83
2022/01/30 12:03:30;;;;;;;;;9.00;4.33;;;;;11.75;53.85;102794.03;5139445;27;45260;-82
2022/01/30 12:06:16;;;;;;;;;6.67;4.00;;;;;11.78;53.07;102788.84;5120727;27;45453;-82
2022/01/30 12:08:52;;;;;;;;;10.67;6.00;;;;;11.42;53.03;102742.00;5120609;27;45479;-82
2022/01/30 12:11:36;;;;;;;;;4.67;3.00;;;;;11.73;53.94;102790.38;5120446;27;48333;-81
2022/01/30 12:14:21;;;;;;;;;5.00;4.00;;;;;11.82;54.90;102786.41;5138918;27;46269;-82
2022/01/30 12:16:48;;;;;;;;;5.33;4.00;;;;;11.90;54.35;102786.78;5119266;27;45362;-82
2022/01/30 12:19:32;;;;;;;;;6.67;4.00;;;;;11.82;53.36;102790.81;5120322;27;45275;-82
2022/01/30 12:21:59;;;;;;;;;7.00;5.33;;;;;11.58;52.83;102759.56;5121596;27;47332;-82
2022/01/30 12:24:25;;;;;;;;;7.00;6.67;;;;;11.72;52.90;102778.84;5138550;27;45573;-82
2022/01/30 12:26:52;;;;;;;;;3.00;3.00;;;;;11.41;53.50;102718.91;5139129;27;45495;-82
2022/01/30 12:29:54;;;;;;;;;6.00;5.00;;;;;11.78;52.71;102763.16;5138707;27;45793;-82
2022/01/30 12:32:22;;;;;;;;;5.00;5.00;;;;;11.73;51.99;102766.44;5054522;28;45584;-82
2022/01/30 12:34:56;;;;;;;;;9.00;6.00;;;;;11.61;52.01;102753.50;5054531;28;45530;-82
2022/01/30 12:37:31;;;;;;;;;7.00;4.33;;;;;11.55;52.77;102748.81;5054470;28;45321;-82